sensor_id;sensor_type;location;lat;lon;timestamp;pressure;altitude;pressure_sealevel;temperature;humidity
64340;BME280;63709;53.258;-8.814;2023-03-26T00:01:30;100040.28;;;11.95;100.00
64340;BME280;63709;53.258;-8.814;2023-03-26T00:03:59;100050.13;;;11.95;100.00
64340;BME280;63709;53.258;-8.814;2023-03-26T00:06:29;100041.25;;;12.04;100.00
64340;BME280;63709;53.258;-8.814;2023-03-26T00:08:56;100037.97;;;12.20;100.00
64340;BME280;63709;53.258;-8.814;2023-03-26T00:11:22;100047.03;;;11.99;100.00
64340;BME280;63709;53.258;-8.814;2023-03-26T00:16:25;100051.38;;;12.10;100.00
64340;BME280;63709;53.258;-8.814;2023-03-26T00:18:53;100054.50;;;11.96;100.00
64340;BME280;63709;53.258;-8.814;2023-03-26T00:21:22;100060.97;;;12.03;100.00
64340;BME280;63709;53.258;-8.814;2023-03-26T00:23:53;100065.19;;;11.96;100.00
64340;BME280;63709;53.258;-8.814;2023-03-26T00:26:19;100065.03;;;12.07;100.00
64340;BME280;63709;53.258;-8.814;2023-03-26T00:28:45;100063.91;;;12.00;100.00
64340;BME280;63709;53.258;-8.814;2023-03-26T00:31:11;100069.81;;;12.03;100.00
64340;BME280;63709;53.258;-8.814;2023-03-26T00:33:39;100068.59;;;11.98;100.00
64340;BME280;63709;53.258;-8.814;2023-03-26T00:36:06;100068.97;;;12.03;100.00
64340;BME280;63709;53.258;-8.814;2023-03-26T00:38:41;100076.16;;;11.93;100.00
64340;BME280;63709;53.258;-8.814;2023-03-26T00:41:14;100075.44;;;11.81;100.00
64340;BME280;63709;53.258;-8.814;2023-03-26T00:43:47;100077.44;;;11.98;100.00
64340;BME280;63709;53.258;-8.814;2023-03-26T00:46:12;100080.25;;;12.06;100.00
64340;BME280;63709;53.258;-8.814;2023-03-26T00:48:40;100086.44;;;11.97;100.00
64340;BME280;63709;53.258;-8.814;2023-03-26T00:51:09;100078.56;;;11.86;100.00
64340;BME280;63709;53.258;-8.814;2023-03-26T00:53:36;100079.09;;;11.80;100.00
64340;BME280;63709;53.258;-8.814;2023-03-26T00:56:03;100080.13;;;11.98;100.00
64340;BME280;63709;53.258;-8.814;2023-03-26T00:58:29;100090.66;;;11.90;100.00
64340;BME280;63709;53.258;-8.814;2023-03-26T01:00:57;100088.41;;;11.76;100.00
64340;BME280;63709;53.258;-8.814;2023-03-26T01:03:25;100091.22;;;11.65;100.00
64340;BME280;63709;53.258;-8.814;2023-03-26T01:05:58;100087.81;;;11.82;100.00
64340;BME280;63709;53.258;-8.814;2023-03-26T01:11:29;100088.81;;;11.81;100.00
64340;BME280;63709;53.258;-8.814;2023-03-26T01:14:04;100091.81;;;11.88;100.00
64340;BME280;63709;53.258;-8.814;2023-03-26T01:16:42;100097.13;;;11.68;100.00
64340;BME280;63709;53.258;-8.814;2023-03-26T01:19:15;100102.47;;;11.78;100.00
64340;BME280;63709;53.258;-8.814;2023-03-26T01:21:45;100107.38;;;11.82;100.00
64340;BME280;63709;53.258;-8.814;2023-03-26T01:24:12;100116.25;;;11.83;100.00
64340;BME280;63709;53.258;-8.814;2023-03-26T01:32:08;100131.44;;;11.73;100.00
64340;BME280;63709;53.258;-8.814;2023-03-26T01:39:56;100142.44;;;11.79;100.00
64340;BME280;63709;53.258;-8.814;2023-03-26T01:45:20;100147.50;;;11.73;100.00
64340;BME280;63709;53.258;-8.814;2023-03-26T01:47:49;100150.13;;;11.53;100.00
64340;BME280;63709;53.258;-8.814;2023-03-26T01:50:17;100157.75;;;11.58;100.00
64340;BME280;63709;53.258;-8.814;2023-03-26T01:52:42;100157.31;;;11.62;100.00
64340;BME280;63709;53.258;-8.814;2023-03-26T01:55:08;100159.81;;;11.45;100.00
64340;BME280;63709;53.258;-8.814;2023-03-26T01:57:44;100159.16;;;11.62;100.00
64340;BME280;63709;53.258;-8.814;2023-03-26T02:00:22;100156.59;;;11.60;100.00
64340;BME280;63709;53.258;-8.814;2023-03-26T02:05:53;100170.38;;;11.56;100.00
64340;BME280;63709;53.258;-8.814;2023-03-26T02:08:27;100171.63;;;11.52;100.00
64340;BME280;63709;53.258;-8.814;2023-03-26T02:11:01;100178.09;;;11.49;100.00
64340;BME280;63709;53.258;-8.814;2023-03-26T02:13:28;100176.88;;;11.63;100.00
64340;BME280;63709;53.258;-8.814;2023-03-26T02:15:58;100184.31;;;11.59;100.00
64340;BME280;63709;53.258;-8.814;2023-03-26T02:18:24;100179.81;;;11.60;100.00
64340;BME280;63709;53.258;-8.814;2023-03-26T02:21:00;100195.28;;;11.47;100.00
64340;BME280;63709;53.258;-8.814;2023-03-26T02:23:27;100200.72;;;11.45;100.00
64340;BME280;63709;53.258;-8.814;2023-03-26T02:25:53;100205.66;;;11.40;100.00
64340;BME280;63709;53.258;-8.814;2023-03-26T02:28:19;100206.22;;;11.44;100.00
64340;BME280;63709;53.258;-8.814;2023-03-26T02:30:45;100206.41;;;11.61;100.00
64340;BME280;63709;53.258;-8.814;2023-03-26T02:33:11;100204.25;;;11.46;100.00
64340;BME280;63709;53.258;-8.814;2023-03-26T02:35:40;100210.25;;;11.28;100.00
64340;BME280;63709;53.258;-8.814;2023-03-26T02:38:05;100213.94;;;11.37;100.00
64340;BME280;63709;53.258;-8.814;2023-03-26T02:40:40;100216.59;;;11.27;100.00
64340;BME280;63709;53.258;-8.814;2023-03-26T02:43:06;100219.88;;;11.10;100.00
64340;BME280;63709;53.258;-8.814;2023-03-26T02:45:33;100223.47;;;11.30;100.00
64340;BME280;63709;53.258;-8.814;2023-03-26T02:47:58;100236.78;;;11.20;100.00
64340;BME280;63709;53.258;-8.814;2023-03-26T02:50:25;100238.47;;;11.21;100.00
64340;BME280;63709;53.258;-8.814;2023-03-26T02:52:53;100246.97;;;11.05;100.00
64340;BME280;63709;53.258;-8.814;2023-03-26T02:55:18;100251.41;;;11.16;100.00
64340;BME280;63709;53.258;-8.814;2023-03-26T02:57:43;100243.50;;;11.14;100.00
64340;BME280;63709;53.258;-8.814;2023-03-26T03:00:09;100258.03;;;11.01;100.00
64340;BME280;63709;53.258;-8.814;2023-03-26T03:02:42;100263.63;;;11.19;100.00
64340;BME280;63709;53.258;-8.814;2023-03-26T03:05:11;100269.53;;;11.22;100.00
64340;BME280;63709;53.258;-8.814;2023-03-26T03:07:38;100276.91;;;11.30;100.00
64340;BME280;63709;53.258;-8.814;2023-03-26T03:10:05;100275.56;;;10.94;100.00
64340;BME280;63709;53.258;-8.814;2023-03-26T03:12:32;100286.25;;;10.94;100.00
64340;BME280;63709;53.258;-8.814;2023-03-26T03:14:58;100282.53;;;11.06;100.00
64340;BME280;63709;53.258;-8.814;2023-03-26T03:17:25;100294.00;;;11.18;100.00
64340;BME280;63709;53.258;-8.814;2023-03-26T03:19:51;100299.84;;;11.11;100.00
64340;BME280;63709;53.258;-8.814;2023-03-26T03:22:16;100300.03;;;11.20;100.00
64340;BME280;63709;53.258;-8.814;2023-03-26T03:24:42;100298.34;;;11.19;100.00
64340;BME280;63709;53.258;-8.814;2023-03-26T03:27:08;100306.25;;;11.20;100.00
64340;BME280;63709;53.258;-8.814;2023-03-26T03:29:34;100308.44;;;11.15;100.00
64340;BME280;63709;53.258;-8.814;2023-03-26T03:32:01;100315.63;;;11.14;100.00
64340;BME280;63709;53.258;-8.814;2023-03-26T03:34:26;100325.59;;;11.12;100.00
64340;BME280;63709;53.258;-8.814;2023-03-26T03:36:52;100327.09;;;11.05;100.00
64340;BME280;63709;53.258;-8.814;2023-03-26T03:39:18;100331.97;;;11.00;100.00
64340;BME280;63709;53.258;-8.814;2023-03-26T03:41:44;100332.16;;;11.08;100.00
64340;BME280;63709;53.258;-8.814;2023-03-26T03:44:09;100331.47;;;11.06;100.00
64340;BME280;63709;53.258;-8.814;2023-03-26T03:46:34;100340.81;;;11.01;100.00
64340;BME280;63709;53.258;-8.814;2023-03-26T03:49:00;100344.69;;;10.87;100.00
64340;BME280;63709;53.258;-8.814;2023-03-26T03:51:25;100345.63;;;10.86;100.00
64340;BME280;63709;53.258;-8.814;2023-03-26T03:53:51;100353.91;;;10.83;100.00
64340;BME280;63709;53.258;-8.814;2023-03-26T03:56:17;100364.50;;;10.73;100.00
64340;BME280;63709;53.258;-8.814;2023-03-26T03:58:43;100372.50;;;10.73;100.00
64340;BME280;63709;53.258;-8.814;2023-03-26T04:01:10;100378.34;;;10.67;100.00
64340;BME280;63709;53.258;-8.814;2023-03-26T04:03:38;100383.09;;;10.63;100.00
64340;BME280;63709;53.258;-8.814;2023-03-26T04:06:04;100379.56;;;10.63;100.00
64340;BME280;63709;53.258;-8.814;2023-03-26T04:08:31;100397.56;;;10.61;100.00
64340;BME280;63709;53.258;-8.814;2023-03-26T04:10:58;100393.34;;;10.47;100.00
64340;BME280;63709;53.258;-8.814;2023-03-26T04:13:23;100395.97;;;10.58;100.00
64340;BME280;63709;53.258;-8.814;2023-03-26T04:15:50;100403.97;;;10.58;100.00
64340;BME280;63709;53.258;-8.814;2023-03-26T04:18:15;100396.56;;;10.62;100.00
64340;BME280;63709;53.258;-8.814;2023-03-26T04:20:43;100407.94;;;10.64;100.00
64340;BME280;63709;53.258;-8.814;2023-03-26T04:23:14;100400.53;;;10.68;100.00
64340;BME280;63709;53.258;-8.814;2023-03-26T04:25:43;100399.34;;;10.72;100.00
64340;BME280;63709;53.258;-8.814;2023-03-26T04:28:16;100414.00;;;10.77;100.00
64340;BME280;63709;53.258;-8.814;2023-03-26T04:30:47;100420.78;;;10.81;100.00
64340;BME280;63709;53.258;-8.814;2023-03-26T04:33:14;100424.41;;;10.80;100.00
64340;BME280;63709;53.258;-8.814;2023-03-26T04:35:39;100431.84;;;10.77;100.00
64340;BME280;63709;53.258;-8.814;2023-03-26T04:38:08;100433.13;;;10.82;100.00
64340;BME280;63709;53.258;-8.814;2023-03-26T04:40:34;100432.38;;;10.92;100.00
64340;BME280;63709;53.258;-8.814;2023-03-26T04:43:01;100441.84;;;10.96;100.00
64340;BME280;63709;53.258;-8.814;2023-03-26T04:45:27;100446.19;;;10.97;100.00
64340;BME280;63709;53.258;-8.814;2023-03-26T04:47:57;100454.59;;;10.92;100.00
64340;BME280;63709;53.258;-8.814;2023-03-26T04:50:22;100462.84;;;10.89;100.00
64340;BME280;63709;53.258;-8.814;2023-03-26T04:52:48;100461.25;;;10.98;100.00
64340;BME280;63709;53.258;-8.814;2023-03-26T04:55:21;100470.72;;;11.02;100.00
64340;BME280;63709;53.258;-8.814;2023-03-26T04:57:50;100469.25;;;11.09;100.00
64340;BME280;63709;53.258;-8.814;2023-03-26T05:00:19;100474.81;;;11.06;100.00
64340;BME280;63709;53.258;-8.814;2023-03-26T05:02:45;100480.63;;;11.11;100.00
64340;BME280;63709;53.258;-8.814;2023-03-26T05:05:14;100486.56;;;11.14;100.00
64340;BME280;63709;53.258;-8.814;2023-03-26T05:07:39;100488.25;;;11.15;100.00
64340;BME280;63709;53.258;-8.814;2023-03-26T05:10:06;100493.50;;;11.17;100.00
64340;BME280;63709;53.258;-8.814;2023-03-26T05:12:32;100506.25;;;11.13;100.00
64340;BME280;63709;53.258;-8.814;2023-03-26T05:14:59;100507.53;;;11.19;100.00
64340;BME280;63709;53.258;-8.814;2023-03-26T05:17:24;100514.97;;;11.15;100.00
64340;BME280;63709;53.258;-8.814;2023-03-26T05:19:50;100511.34;;;11.17;100.00
64340;BME280;63709;53.258;-8.814;2023-03-26T05:22:16;100517.78;;;11.14;100.00
64340;BME280;63709;53.258;-8.814;2023-03-26T05:24:43;100515.25;;;11.12;100.00
64340;BME280;63709;53.258;-8.814;2023-03-26T05:27:13;100531.03;;;11.04;100.00
64340;BME280;63709;53.258;-8.814;2023-03-26T05:29:39;100532.78;;;11.26;100.00
64340;BME280;63709;53.258;-8.814;2023-03-26T05:32:05;100541.03;;;11.23;100.00
64340;BME280;63709;53.258;-8.814;2023-03-26T05:34:31;100551.28;;;11.07;100.00
64340;BME280;63709;53.258;-8.814;2023-03-26T05:36:56;100549.63;;;11.06;100.00
64340;BME280;63709;53.258;-8.814;2023-03-26T05:39:22;100563.31;;;11.12;100.00
64340;BME280;63709;53.258;-8.814;2023-03-26T05:41:51;100569.75;;;11.10;100.00
64340;BME280;63709;53.258;-8.814;2023-03-26T05:44:17;100577.53;;;11.02;100.00
64340;BME280;63709;53.258;-8.814;2023-03-26T05:46:44;100586.25;;;11.04;100.00
64340;BME280;63709;53.258;-8.814;2023-03-26T05:49:09;100592.09;;;11.09;100.00
64340;BME280;63709;53.258;-8.814;2023-03-26T05:51:34;100608.84;;;11.00;100.00
64340;BME280;63709;53.258;-8.814;2023-03-26T05:54:02;100605.34;;;10.99;100.00
64340;BME280;63709;53.258;-8.814;2023-03-26T05:56:29;100625.72;;;11.00;100.00
64340;BME280;63709;53.258;-8.814;2023-03-26T05:58:55;100627.91;;;10.95;100.00
64340;BME280;63709;53.258;-8.814;2023-03-26T06:01:22;100635.31;;;10.92;100.00
64340;BME280;63709;53.258;-8.814;2023-03-26T06:03:51;100646.84;;;10.92;100.00
64340;BME280;63709;53.258;-8.814;2023-03-26T06:06:19;100655.47;;;10.84;100.00
64340;BME280;63709;53.258;-8.814;2023-03-26T06:08:45;100651.94;;;10.73;100.00
64340;BME280;63709;53.258;-8.814;2023-03-26T06:13:42;100677.28;;;10.67;100.00
64340;BME280;63709;53.258;-8.814;2023-03-26T06:16:09;100679.50;;;10.73;100.00
64340;BME280;63709;53.258;-8.814;2023-03-26T06:18:35;100691.38;;;10.69;100.00
64340;BME280;63709;53.258;-8.814;2023-03-26T06:21:01;100701.06;;;10.59;100.00
64340;BME280;63709;53.258;-8.814;2023-03-26T06:23:26;100712.13;;;10.65;100.00
64340;BME280;63709;53.258;-8.814;2023-03-26T06:25:52;100723.84;;;10.52;100.00
64340;BME280;63709;53.258;-8.814;2023-03-26T06:28:17;100717.78;;;10.50;100.00
64340;BME280;63709;53.258;-8.814;2023-03-26T06:30:43;100729.16;;;10.40;100.00
64340;BME280;63709;53.258;-8.814;2023-03-26T06:33:08;100733.63;;;10.40;100.00
64340;BME280;63709;53.258;-8.814;2023-03-26T06:35:36;100745.50;;;10.36;100.00
64340;BME280;63709;53.258;-8.814;2023-03-26T06:40:33;100762.75;;;10.43;100.00
64340;BME280;63709;53.258;-8.814;2023-03-26T06:43:01;100770.09;;;10.28;100.00
64340;BME280;63709;53.258;-8.814;2023-03-26T06:45:28;100781.44;;;10.43;100.00
64340;BME280;63709;53.258;-8.814;2023-03-26T06:47:53;100790.59;;;10.28;100.00
64340;BME280;63709;53.258;-8.814;2023-03-26T06:50:19;100803.34;;;10.35;100.00
64340;BME280;63709;53.258;-8.814;2023-03-26T06:52:46;100795.47;;;10.21;100.00
64340;BME280;63709;53.258;-8.814;2023-03-26T06:55:12;100806.25;;;10.32;100.00
64340;BME280;63709;53.258;-8.814;2023-03-26T06:57:39;100806.81;;;10.12;100.00
64340;BME280;63709;53.258;-8.814;2023-03-26T07:00:05;100811.94;;;10.15;100.00
64340;BME280;63709;53.258;-8.814;2023-03-26T07:02:31;100808.19;;;10.17;100.00
64340;BME280;63709;53.258;-8.814;2023-03-26T07:05:03;100822.38;;;10.18;100.00
64340;BME280;63709;53.258;-8.814;2023-03-26T07:07:28;100825.81;;;10.44;100.00
64340;BME280;63709;53.258;-8.814;2023-03-26T07:09:53;100828.13;;;10.25;100.00
64340;BME280;63709;53.258;-8.814;2023-03-26T07:12:20;100836.78;;;10.15;100.00
64340;BME280;63709;53.258;-8.814;2023-03-26T07:14:47;100845.41;;;10.32;100.00
64340;BME280;63709;53.258;-8.814;2023-03-26T07:17:12;100846.78;;;10.25;100.00
64340;BME280;63709;53.258;-8.814;2023-03-26T07:19:37;100861.28;;;10.33;100.00
64340;BME280;63709;53.258;-8.814;2023-03-26T07:22:04;100869.44;;;10.32;100.00
64340;BME280;63709;53.258;-8.814;2023-03-26T07:24:30;100877.34;;;10.08;100.00
64340;BME280;63709;53.258;-8.814;2023-03-26T07:35:35;100903.38;;;10.04;100.00
64340;BME280;63709;53.258;-8.814;2023-03-26T07:40:26;100914.25;;;10.14;100.00
64340;BME280;63709;53.258;-8.814;2023-03-26T07:45:28;100922.53;;;10.22;100.00
64340;BME280;63709;53.258;-8.814;2023-03-26T07:47:58;100934.72;;;10.26;100.00
64340;BME280;63709;53.258;-8.814;2023-03-26T07:50:24;100934.81;;;10.37;100.00
64340;BME280;63709;53.258;-8.814;2023-03-26T07:52:52;100930.69;;;10.21;100.00
64340;BME280;63709;53.258;-8.814;2023-03-26T07:55:19;100928.75;;;10.35;100.00
64340;BME280;63709;53.258;-8.814;2023-03-26T08:08:17;100968.81;;;10.59;100.00
64340;BME280;63709;53.258;-8.814;2023-03-26T08:16:25;100991.47;;;10.78;100.00
64340;BME280;63709;53.258;-8.814;2023-03-26T08:21:31;101002.44;;;10.86;100.00
64340;BME280;63709;53.258;-8.814;2023-03-26T08:24:04;101017.22;;;10.79;100.00
64340;BME280;63709;53.258;-8.814;2023-03-26T08:31:54;101031.97;;;11.08;100.00
64340;BME280;63709;53.258;-8.814;2023-03-26T08:34:21;101038.69;;;11.14;100.00
64340;BME280;63709;53.258;-8.814;2023-03-26T08:36:47;101044.88;;;11.14;100.00
64340;BME280;63709;53.258;-8.814;2023-03-26T08:39:12;101053.78;;;11.26;100.00
64340;BME280;63709;53.258;-8.814;2023-03-26T08:47:06;101084.31;;;11.83;100.00
64340;BME280;63709;53.258;-8.814;2023-03-26T09:00:02;101111.47;;;12.36;100.00
64340;BME280;63709;53.258;-8.814;2023-03-26T09:02:52;101119.72;;;12.44;100.00
64340;BME280;63709;53.258;-8.814;2023-03-26T09:10:52;101127.91;;;12.54;100.00
64340;BME280;63709;53.258;-8.814;2023-03-26T09:19:11;101143.25;;;12.74;100.00
64340;BME280;63709;53.258;-8.814;2023-03-26T09:50:56;101205.50;;;13.12;100.00
64340;BME280;63709;53.258;-8.814;2023-03-26T10:01:30;101242.19;;;13.34;100.00
64340;BME280;63709;53.258;-8.814;2023-03-26T10:09:18;101255.09;;;13.62;100.00
64340;BME280;63709;53.258;-8.814;2023-03-26T10:11:51;101265.03;;;13.83;100.00
64340;BME280;63709;53.258;-8.814;2023-03-26T10:14:28;101269.19;;;13.87;100.00
64340;BME280;63709;53.258;-8.814;2023-03-26T10:17:12;101268.25;;;13.76;100.00
64340;BME280;63709;53.258;-8.814;2023-03-26T10:22:33;101286.38;;;13.95;100.00
64340;BME280;63709;53.258;-8.814;2023-03-26T10:38:00;101322.41;;;14.36;100.00
64340;BME280;63709;53.258;-8.814;2023-03-26T10:40:35;101323.56;;;14.55;100.00
64340;BME280;63709;53.258;-8.814;2023-03-26T10:51:05;101345.38;;;14.93;100.00
64340;BME280;63709;53.258;-8.814;2023-03-26T10:53:59;101351.28;;;15.08;100.00
64340;BME280;63709;53.258;-8.814;2023-03-26T10:59:17;101363.09;;;15.17;100.00
64340;BME280;63709;53.258;-8.814;2023-03-26T11:07:01;101372.97;;;15.16;100.00
64340;BME280;63709;53.258;-8.814;2023-03-26T11:09:37;101382.41;;;15.53;100.00
64340;BME280;63709;53.258;-8.814;2023-03-26T11:12:09;101390.97;;;14.95;100.00
64340;BME280;63709;53.258;-8.814;2023-03-26T11:14:44;101392.34;;;15.10;100.00
64340;BME280;63709;53.258;-8.814;2023-03-26T11:20:08;101406.78;;;15.30;100.00
64340;BME280;63709;53.258;-8.814;2023-03-26T11:28:41;101426.25;;;15.22;100.00
64340;BME280;63709;53.258;-8.814;2023-03-26T11:30:52;101431.81;;;15.31;100.00
64340;BME280;63709;53.258;-8.814;2023-03-26T11:33:38;101430.06;;;15.41;100.00
64340;BME280;63709;53.258;-8.814;2023-03-26T11:36:06;101435.44;;;15.41;100.00
64340;BME280;63709;53.258;-8.814;2023-03-26T11:38:46;101436.09;;;15.54;100.00
64340;BME280;63709;53.258;-8.814;2023-03-26T11:41:14;101443.25;;;15.86;100.00
64340;BME280;63709;53.258;-8.814;2023-03-26T11:43:40;101448.44;;;16.08;100.00
64340;BME280;63709;53.258;-8.814;2023-03-26T11:46:07;101447.09;;;16.24;100.00
64340;BME280;63709;53.258;-8.814;2023-03-26T11:51:07;101465.44;;;16.39;100.00
64340;BME280;63709;53.258;-8.814;2023-03-26T11:53:33;101470.22;;;16.26;100.00
64340;BME280;63709;53.258;-8.814;2023-03-26T11:56:03;101470.84;;;16.09;100.00
64340;BME280;63709;53.258;-8.814;2023-03-26T12:01:27;101496.50;;;16.13;100.00
64340;BME280;63709;53.258;-8.814;2023-03-26T12:03:56;101501.47;;;16.08;100.00
64340;BME280;63709;53.258;-8.814;2023-03-26T12:06:24;101503.56;;;16.04;100.00
64340;BME280;63709;53.258;-8.814;2023-03-26T12:08:51;101505.66;;;16.31;100.00
64340;BME280;63709;53.258;-8.814;2023-03-26T12:11:18;101513.00;;;16.19;100.00
64340;BME280;63709;53.258;-8.814;2023-03-26T12:13:51;101512.19;;;16.29;100.00
64340;BME280;63709;53.258;-8.814;2023-03-26T12:16:17;101515.97;;;16.47;100.00
64340;BME280;63709;53.258;-8.814;2023-03-26T12:18:44;101518.41;;;16.50;100.00
64340;BME280;63709;53.258;-8.814;2023-03-26T12:21:14;101526.25;;;16.32;100.00
64340;BME280;63709;53.258;-8.814;2023-03-26T12:23:59;101524.06;;;16.47;100.00
64340;BME280;63709;53.258;-8.814;2023-03-26T12:29:05;101532.16;;;16.57;100.00
64340;BME280;63709;53.258;-8.814;2023-03-26T12:31:39;101529.16;;;16.50;100.00
64340;BME280;63709;53.258;-8.814;2023-03-26T12:34:08;101520.56;;;16.05;100.00
64340;BME280;63709;53.258;-8.814;2023-03-26T12:36:38;101538.47;;;16.36;100.00
64340;BME280;63709;53.258;-8.814;2023-03-26T12:39:19;101545.63;;;16.57;100.00
64340;BME280;63709;53.258;-8.814;2023-03-26T12:41:56;101562.34;;;16.20;100.00
64340;BME280;63709;53.258;-8.814;2023-03-26T12:44:27;101569.34;;;16.63;100.00
64340;BME280;63709;53.258;-8.814;2023-03-26T12:47:13;101567.09;;;16.68;100.00
64340;BME280;63709;53.258;-8.814;2023-03-26T12:49:40;101575.66;;;16.73;100.00
64340;BME280;63709;53.258;-8.814;2023-03-26T12:54:43;101560.03;;;17.27;100.00
64340;BME280;63709;53.258;-8.814;2023-03-26T13:19:56;101586.38;;;19.32;77.44
64340;BME280;63709;53.258;-8.814;2023-03-26T13:25:39;101585.97;;;19.98;87.61
64340;BME280;63709;53.258;-8.814;2023-03-26T13:28:05;101580.38;;;20.18;69.81
64340;BME280;63709;53.258;-8.814;2023-03-26T13:31:38;101579.97;;;20.39;68.64
64340;BME280;63709;53.258;-8.814;2023-03-26T13:33:49;101574.81;;;20.53;70.73
64340;BME280;63709;53.258;-8.814;2023-03-26T13:39:00;101590.16;;;20.11;65.18
64340;BME280;63709;53.258;-8.814;2023-03-26T13:41:32;101600.00;;;19.58;66.32
64340;BME280;63709;53.258;-8.814;2023-03-26T13:46:56;101599.34;;;20.44;67.02
64340;BME280;63709;53.258;-8.814;2023-03-26T13:49:35;101605.19;;;20.31;70.09
64340;BME280;63709;53.258;-8.814;2023-03-26T13:52:07;101604.63;;;20.79;65.02
64340;BME280;63709;53.258;-8.814;2023-03-26T13:54:38;101609.00;;;20.72;60.91
64340;BME280;63709;53.258;-8.814;2023-03-26T13:57:08;101611.53;;;20.14;60.09
64340;BME280;63709;53.258;-8.814;2023-03-26T13:59:43;101615.09;;;19.96;60.72
64340;BME280;63709;53.258;-8.814;2023-03-26T14:02:34;101619.06;;;18.93;65.62
64340;BME280;63709;53.258;-8.814;2023-03-26T14:05:14;101625.00;;;19.06;68.57
64340;BME280;63709;53.258;-8.814;2023-03-26T14:10:27;101624.53;;;19.56;74.15
64340;BME280;63709;53.258;-8.814;2023-03-26T14:13:09;101620.22;;;19.81;69.07
64340;BME280;63709;53.258;-8.814;2023-03-26T14:15:47;101612.09;;;19.64;66.77
64340;BME280;63709;53.258;-8.814;2023-03-26T14:23:33;101624.88;;;19.26;66.83
64340;BME280;63709;53.258;-8.814;2023-03-26T14:38:59;101627.50;;;22.35;52.13
64340;BME280;63709;53.258;-8.814;2023-03-26T14:51:27;101644.63;;;21.03;55.40
64340;BME280;63709;53.258;-8.814;2023-03-26T14:53:59;101647.78;;;19.77;56.21
64340;BME280;63709;53.258;-8.814;2023-03-26T14:59:11;101657.66;;;19.23;59.88
64340;BME280;63709;53.258;-8.814;2023-03-26T15:04:41;101666.84;;;19.12;71.06
64340;BME280;63709;53.258;-8.814;2023-03-26T15:27:56;101710.03;;;18.47;81.60
64340;BME280;63709;53.258;-8.814;2023-03-26T15:33:12;101722.81;;;17.77;88.63
64340;BME280;63709;53.258;-8.814;2023-03-26T15:35:48;101730.78;;;17.98;88.94
64340;BME280;63709;53.258;-8.814;2023-03-26T15:46:23;101732.72;;;17.27;100.00
64340;BME280;63709;53.258;-8.814;2023-03-26T15:53:59;101748.72;;;17.80;100.00
64340;BME280;63709;53.258;-8.814;2023-03-26T16:01:37;101758.38;;;19.54;90.59
64340;BME280;63709;53.258;-8.814;2023-03-26T16:04:10;101758.88;;;19.77;79.38
64340;BME280;63709;53.258;-8.814;2023-03-26T16:06:52;101772.94;;;19.53;82.09
64340;BME280;63709;53.258;-8.814;2023-03-26T16:09:31;101774.31;;;19.67;81.66
64340;BME280;63709;53.258;-8.814;2023-03-26T16:12:03;101776.09;;;19.48;78.43
64340;BME280;63709;53.258;-8.814;2023-03-26T16:14:46;101788.16;;;19.26;75.05
64340;BME280;63709;53.258;-8.814;2023-03-26T16:17:21;101797.25;;;18.88;82.27
64340;BME280;63709;53.258;-8.814;2023-03-26T16:25:23;101824.22;;;17.30;100.00
64340;BME280;63709;53.258;-8.814;2023-03-26T16:30:27;101824.25;;;16.88;100.00
64340;BME280;63709;53.258;-8.814;2023-03-26T16:32:56;101822.91;;;16.61;100.00
64340;BME280;63709;53.258;-8.814;2023-03-26T16:35:34;101833.38;;;16.43;100.00
64340;BME280;63709;53.258;-8.814;2023-03-26T16:38:04;101841.13;;;16.37;100.00
64340;BME280;63709;53.258;-8.814;2023-03-26T16:40:34;101843.75;;;16.05;100.00
64340;BME280;63709;53.258;-8.814;2023-03-26T16:48:37;101842.69;;;15.85;100.00
64340;BME280;63709;53.258;-8.814;2023-03-26T16:51:29;101840.25;;;15.82;100.00
64340;BME280;63709;53.258;-8.814;2023-03-26T16:54:34;101856.88;;;15.87;100.00
64340;BME280;63709;53.258;-8.814;2023-03-26T16:56:46;101855.06;;;15.99;100.00
64340;BME280;63709;53.258;-8.814;2023-03-26T16:59:41;101861.75;;;16.04;100.00
64340;BME280;63709;53.258;-8.814;2023-03-26T17:02:14;101863.34;;;16.07;100.00
64340;BME280;63709;53.258;-8.814;2023-03-26T17:04:42;101865.44;;;16.03;100.00
64340;BME280;63709;53.258;-8.814;2023-03-26T17:10:33;101878.78;;;15.82;100.00
64340;BME280;63709;53.258;-8.814;2023-03-26T17:13:02;101886.00;;;15.59;100.00
64340;BME280;63709;53.258;-8.814;2023-03-26T17:15:44;101880.22;;;15.53;100.00
64340;BME280;63709;53.258;-8.814;2023-03-26T17:20:43;101883.56;;;15.67;100.00
64340;BME280;63709;53.258;-8.814;2023-03-26T17:33:45;101879.84;;;15.57;100.00
64340;BME280;63709;53.258;-8.814;2023-03-26T17:41:08;101892.34;;;15.00;100.00
64340;BME280;63709;53.258;-8.814;2023-03-26T17:43:45;101903.97;;;15.01;100.00
64340;BME280;63709;53.258;-8.814;2023-03-26T17:54:46;101929.31;;;14.86;100.00
64340;BME280;63709;53.258;-8.814;2023-03-26T17:56:53;101931.06;;;14.98;100.00
64340;BME280;63709;53.258;-8.814;2023-03-26T17:59:21;101931.03;;;14.87;100.00
64340;BME280;63709;53.258;-8.814;2023-03-26T18:01:51;101934.34;;;14.90;100.00
64340;BME280;63709;53.258;-8.814;2023-03-26T18:04:23;101939.31;;;15.08;100.00
64340;BME280;63709;53.258;-8.814;2023-03-26T18:06:56;101952.41;;;15.12;100.00
64340;BME280;63709;53.258;-8.814;2023-03-26T18:10:00;101946.75;;;15.04;100.00
64340;BME280;63709;53.258;-8.814;2023-03-26T18:17:54;101954.06;;;14.91;100.00
64340;BME280;63709;53.258;-8.814;2023-03-26T18:22:51;101962.50;;;14.73;100.00
64340;BME280;63709;53.258;-8.814;2023-03-26T18:25:31;101969.03;;;14.58;100.00
64340;BME280;63709;53.258;-8.814;2023-03-26T18:28:05;101974.16;;;14.48;100.00
64340;BME280;63709;53.258;-8.814;2023-03-26T18:33:02;101984.19;;;14.34;100.00